Time;durP1;ratioP1;P1;durP2;ratioP2;P2;SDS_P1;SDS_P2;PMS_P1;PMS_P2;Temp;Humidity;BMP_temperature;BMP_pressure;BME280_temperature;BME280_humidity;BME280_pressure;Samples;Min_cycle;Max_cycle;Signal;HPM_P1;HPM_P2
2022/11/02 00:00:46;;;;;;;7.97;0.95;;;;;;;7.68;100.00;100064.88;4962830;28;20027;-74
2022/11/02 00:03:11;;;;;;;4.53;1.10;;;;;;;7.62;100.00;100065.88;4958699;28;20023;-73
2022/11/02 00:05:37;;;;;;;6.90;1.10;;;;;;;7.60;100.00;100074.31;4965374;28;20112;-73
2022/11/02 00:08:02;;;;;;;8.43;1.15;;;;;;;7.57;100.00;100080.28;4968006;28;20042;-73
2022/11/02 00:10:30;;;;;;;5.43;1.27;;;;;;;7.59;100.00;100080.00;4947991;28;20063;-73
2022/11/02 00:12:57;;;;;;;7.75;0.98;;;;;;;7.59;100.00;100091.72;4972296;28;20028;-73
2022/11/02 00:15:26;;;;;;;5.47;1.30;;;;;;;7.59;100.00;100104.50;4956312;28;20070;-72
2022/11/02 00:17:55;;;;;;;7.88;1.00;;;;;;;7.54;100.00;100099.00;4966560;28;20027;-73
2022/11/02 00:20:21;;;;;;;6.65;1.25;;;;;;;7.54;100.00;100096.28;4956690;28;20066;-72
2022/11/02 00:22:49;;;;;;;10.27;1.77;;;;;;;7.55;100.00;100101.47;4966911;28;20090;-72
2022/11/02 00:25:19;;;;;;;5.93;1.00;;;;;;;7.56;100.00;100110.47;4965773;28;20026;-72
2022/11/02 00:27:45;;;;;;;9.68;0.80;;;;;;;7.56;100.00;100113.19;4961234;28;20106;-72
2022/11/02 00:30:10;;;;;;;8.10;1.10;;;;;;;7.56;100.00;100119.44;4933198;28;20090;-73
2022/11/02 00:32:36;;;;;;;6.30;0.85;;;;;;;7.55;100.00;100122.41;4948678;28;20026;-73
2022/11/02 00:35:01;;;;;;;7.68;1.15;;;;;;;7.56;100.00;100130.31;4965868;28;20035;-73
2022/11/02 00:37:26;;;;;;;7.30;1.23;;;;;;;7.60;100.00;100141.53;4961589;28;20035;-74
2022/11/02 00:39:52;;;;;;;6.47;1.38;;;;;;;7.55;100.00;100144.19;4946705;28;20488;-72
2022/11/02 00:42:17;;;;;;;9.00;1.42;;;;;;;7.57;100.00;100153.75;4949623;28;20031;-73
2022/11/02 00:44:43;;;;;;;9.65;1.00;;;;;;;7.54;100.00;100151.53;4945900;29;20031;-73
2022/11/02 00:47:10;;;;;;;10.45;1.30;;;;;;;7.53;100.00;100157.22;4954855;28;20111;-72
2022/11/02 00:49:36;;;;;;;7.90;1.08;;;;;;;7.50;100.00;100153.09;4958523;28;20034;-73
2022/11/02 00:52:02;;;;;;;4.65;0.80;;;;;;;7.40;100.00;100152.97;4964072;28;20031;-74
2022/11/02 00:54:28;;;;;;;6.90;1.30;;;;;;;7.38;100.00;100161.38;4978505;28;20035;-73
2022/11/02 00:56:55;;;;;;;9.07;0.88;;;;;;;7.38;100.00;100164.09;4974195;28;21062;-72
2022/11/02 00:59:20;;;;;;;9.90;1.30;;;;;;;7.34;100.00;100166.50;4964705;28;20039;-73
2022/11/02 01:01:48;;;;;;;8.88;1.48;;;;;;;7.33;100.00;100169.50;4983653;28;20166;-74
2022/11/02 01:04:14;;;;;;;12.65;1.65;;;;;;;7.30;100.00;100169.97;4950252;28;20035;-74
2022/11/02 01:06:41;;;;;;;5.88;1.00;;;;;;;7.28;100.00;100156.63;4966295;28;20034;-74
2022/11/02 01:09:07;;;;;;;19.02;1.60;;;;;;;7.33;100.00;100180.38;4982170;28;20039;-74
2022/11/02 01:11:33;;;;;;;14.05;2.25;;;;;;;7.38;100.00;100176.88;4967817;28;20092;-75
2022/11/02 01:13:59;;;;;;;9.85;1.90;;;;;;;7.36;100.00;100185.31;4970171;28;20065;-73
2022/11/02 01:16:24;;;;;;;10.02;1.58;;;;;;;7.32;100.00;100190.41;4987395;28;20457;-72
2022/11/02 01:18:54;;;;;;;12.77;1.73;;;;;;;7.31;100.00;100188.75;4947891;28;20434;-73
2022/11/02 01:21:20;;;;;;;8.00;1.45;;;;;;;7.27;100.00;100187.63;4964487;28;20035;-72
2022/11/02 01:23:46;;;;;;;12.35;1.55;;;;;;;7.33;100.00;100191.25;4976427;28;20030;-73
2022/11/02 01:26:11;;;;;;;7.70;1.42;;;;;;;7.35;100.00;100191.81;4959272;28;20023;-73
2022/11/02 01:28:38;;;;;;;14.32;1.80;;;;;;;7.36;100.00;100190.75;4977757;28;20035;-73
2022/11/02 01:31:09;;;;;;;10.23;1.42;;;;;;;7.30;100.00;100184.41;4958161;28;20124;-72
2022/11/02 01:33:36;;;;;;;10.68;1.50;;;;;;;7.34;100.00;100196.44;4986006;28;20134;-73
2022/11/02 01:36:03;;;;;;;7.95;1.27;;;;;;;7.28;100.00;100199.31;4965143;28;20031;-75
2022/11/02 01:38:30;;;;;;;12.55;1.33;;;;;;;7.31;100.00;100205.06;4968167;28;20037;-73
2022/11/02 01:40:55;;;;;;;8.80;1.55;;;;;;;7.29;100.00;100200.97;4983231;28;20019;-73
2022/11/02 01:43:23;;;;;;;15.57;2.15;;;;;;;7.30;100.00;100202.59;4952698;28;20042;-73
2022/11/02 01:45:53;;;;;;;12.07;1.63;;;;;;;7.30;100.00;100211.59;4979435;28;20027;-73
2022/11/02 01:48:24;;;;;;;11.30;1.65;;;;;;;7.32;100.00;100222.22;4980724;28;20109;-73
2022/11/02 01:50:50;;;;;;;10.15;1.60;;;;;;;7.30;100.00;100235.25;4969455;28;20031;-74
2022/11/02 01:53:15;;;;;;;11.52;1.45;;;;;;;7.26;100.00;100234.13;4968540;28;20026;-73
2022/11/02 01:55:41;;;;;;;14.82;1.83;;;;;;;7.28;100.00;100237.41;4937024;28;20033;-71
2022/11/02 01:58:09;;;;;;;6.47;1.42;;;;;;;7.27;100.00;100241.19;4964711;28;20031;-72
2022/11/02 02:00:36;;;;;;;5.70;1.23;;;;;;;7.27;100.00;100236.59;4967613;28;20047;-72
2022/11/02 02:03:11;;;;;;;11.05;1.40;;;;;;;7.24;100.00;100238.97;4962041;28;20041;-72
2022/11/02 02:06:02;;;;;;;14.52;2.00;;;;;;;7.18;100.00;100237.25;4966633;28;20046;-71
2022/11/02 02:08:31;;;;;;;11.00;1.98;;;;;;;7.15;100.00;100250.28;4978169;28;20348;-72
2022/11/02 02:10:58;;;;;;;13.10;1.40;;;;;;;7.19;100.00;100245.16;4978440;28;20051;-71
2022/11/02 02:13:25;;;;;;;7.80;1.48;;;;;;;7.21;100.00;100253.88;4982240;28;20046;-72
2022/11/02 02:16:17;;;;;;;8.27;1.38;;;;;;;7.19;100.00;100266.09;4953618;28;20049;-72
2022/11/02 02:18:52;;;;;;;14.65;1.85;;;;;;;7.12;100.00;100267.06;4958703;28;20027;-72
2022/11/02 02:21:17;;;;;;;;;;;;;;;7.12;100.00;100266.25;4982781;28;20042;-72
2022/11/02 02:24:05;;;;;;;8.35;1.20;;;;;;;7.06;100.00;100270.78;4980662;28;19909;-73
2022/11/02 02:26:59;;;;;;;11.95;1.40;;;;;;;7.06;100.00;100269.97;4975866;28;20022;-72
2022/11/02 02:29:31;;;;;;;4.45;1.00;;;;;;;7.05;100.00;100266.41;4984216;28;20046;-73
2022/11/02 02:32:05;;;;;;;10.18;1.33;;;;;;;6.98;100.00;100276.63;4981979;28;20050;-73
2022/11/02 02:34:55;;;;;;;3.30;0.98;;;;;;;6.92;100.00;100273.00;4983000;28;20031;-73
2022/11/02 02:37:55;;;;;;;6.55;1.10;;;;;;;6.90;100.00;100274.31;4984205;28;20027;-72
2022/11/02 02:40:32;;;;;;;17.02;2.05;;;;;;;6.89;100.00;100272.66;4960754;28;20031;-72
2022/11/02 02:43:05;;;;;;;8.63;1.58;;;;;;;6.89;100.00;100278.94;4967018;28;20031;-72
2022/11/02 02:45:31;;;;;;;10.65;1.40;;;;;;;6.93;100.00;100290.13;4981036;28;20023;-72
2022/11/02 02:48:11;;;;;;;11.30;1.50;;;;;;;6.91;100.00;100281.41;4967017;28;20093;-72
2022/11/02 02:50:43;;;;;;;15.38;1.45;;;;;;;6.97;100.00;100291.28;4965311;28;20090;-73
2022/11/02 02:53:11;;;;;;;15.02;1.77;;;;;;;6.96;100.00;100284.19;4980009;28;20113;-72
2022/11/02 02:55:42;;;;;;;6.45;1.50;;;;;;;6.95;100.00;100287.97;4971815;28;20085;-72
2022/11/02 02:58:15;;;;;;;17.60;2.30;;;;;;;6.91;100.00;100297.72;4982317;28;20026;-72
2022/11/02 03:00:41;;;;;;;5.97;1.23;;;;;;;6.90;100.00;100296.88;4976563;28;20029;-72
2022/11/02 03:03:08;;;;;;;8.13;1.33;;;;;;;6.81;100.00;100277.41;4966241;28;20035;-72
2022/11/02 03:05:35;;;;;;;8.93;1.15;;;;;;;6.77;100.00;100291.75;4964314;28;20482;-72
2022/11/02 03:08:07;;;;;;;8.93;1.40;;;;;;;6.76;100.00;100301.81;4966467;28;20027;-72
2022/11/02 03:11:13;;;;;;;5.13;1.20;;;;;;;6.80;100.00;100292.09;4952803;28;20237;-72
2022/11/02 03:13:45;;;;;;;4.53;0.95;;;;;;;6.86;100.00;100303.03;4955585;28;20577;-73
2022/11/02 03:16:26;;;;;;;16.00;1.70;;;;;;;6.86;100.00;100306.56;4927255;29;20461;-72
2022/11/02 03:19:25;;;;;;;9.50;1.73;;;;;;;6.87;100.00;100307.44;4947336;28;20030;-72
2022/11/02 03:22:04;;;;;;;3.22;1.00;;;;;;;6.82;100.00;100311.69;4939943;29;20032;-74
2022/11/02 03:25:02;;;;;;;6.35;1.27;;;;;;;6.81;100.00;100310.03;4944300;29;20058;-73
2022/11/02 03:28:01;;;;;;;7.15;1.40;;;;;;;6.82;100.00;100308.97;4937549;28;20446;-72
2022/11/02 03:30:32;;;;;;;19.38;1.75;;;;;;;6.97;100.00;100323.91;4932543;29;20059;-73
2022/11/02 03:33:13;;;;;;;10.32;1.60;;;;;;;7.04;100.00;100324.59;4945095;29;20024;-71
2022/11/02 03:35:42;;;;;;;12.50;1.75;;;;;;;7.15;100.00;100315.53;4940716;29;20092;-73
2022/11/02 03:38:24;;;;;;;6.60;1.48;;;;;;;7.21;100.00;100313.72;4946010;29;20034;-72
2022/11/02 03:40:53;;;;;;;6.38;1.52;;;;;;;7.28;100.00;100305.41;4949853;29;20023;-73
2022/11/02 03:43:21;;;;;;;10.13;1.30;;;;;;;7.30;100.00;100311.41;4961673;28;20032;-74
2022/11/02 03:45:51;;;;;;;11.00;1.70;;;;;;;7.32;100.00;100314.72;4966850;28;20019;-72
2022/11/02 03:48:20;;;;;;;12.75;1.70;;;;;;;7.29;100.00;100315.22;4950941;29;20035;-73
2022/11/02 03:50:49;;;;;;;10.98;2.80;;;;;;;7.41;98.74;100324.13;4953526;29;20087;-73
2022/11/02 03:53:25;;;;;;;14.48;1.58;;;;;;;7.45;98.06;100325.28;4942068;29;20046;-73
2022/11/02 03:55:57;;;;;;;13.38;2.13;;;;;;;7.48;97.26;100322.06;4944119;29;20034;-74
2022/11/02 03:58:22;;;;;;;10.55;1.60;;;;;;;7.54;96.63;100327.59;4943446;29;20027;-73
2022/11/02 04:01:04;;;;;;;8.73;1.20;;;;;;;7.61;95.93;100344.56;4945083;29;20058;-75
2022/11/02 04:03:32;;;;;;;10.93;2.20;;;;;;;7.59;96.75;100336.63;4944375;29;20068;-74
2022/11/02 04:05:58;;;;;;;13.52;2.22;;;;;;;7.57;96.88;100343.41;4939481;29;20020;-74
2022/11/02 04:08:39;;;;;;;10.35;1.63;;;;;;;7.50;96.85;100332.69;4944090;29;20522;-73
2022/11/02 04:19:26;;;;;;;16.30;1.48;;;;;;;7.40;99.95;100365.97;4984147;28;20050;-73
2022/11/02 04:19:36;;;;;;;8.90;1.42;;;;;;;7.41;99.68;100372.28;4956657;28;20034;-74
2022/11/02 04:27:32;;;;;;;11.55;1.60;;;;;;;7.45;99.42;100381.59;4967514;28;20060;-74
2022/11/02 04:29:57;;;;;;;13.18;1.40;;;;;;;7.44;99.98;100394.34;4965602;28;20027;-72
2022/11/02 04:35:08;;;;;;;7.30;1.25;;;;;;;7.43;99.79;100390.00;4955480;28;20070;-74
2022/11/02 04:40:25;;;;;;;10.10;1.52;;;;;;;7.47;100.00;100409.38;4981342;28;20042;-72
2022/11/02 04:42:51;;;;;;;12.27;2.00;;;;;;;7.47;100.00;100412.09;4985445;28;20026;-72
2022/11/02 04:45:17;;;;;;;11.05;1.52;;;;;;;7.47;100.00;100412.91;4931278;28;20041;-73
2022/11/02 04:47:42;;;;;;;7.10;1.48;;;;;;;7.46;100.00;100419.44;4954503;28;20042;-73
2022/11/02 04:50:08;;;;;;;6.70;1.00;;;;;;;7.39;100.00;100413.31;4943008;28;20042;-73
2022/11/02 04:52:34;;;;;;;8.93;1.40;;;;;;;7.31;100.00;100411.00;4968890;28;20054;-73
2022/11/02 04:54:59;;;;;;;15.85;1.65;;;;;;;7.28;100.00;100430.53;4954487;28;20042;-72
2022/11/02 04:57:24;;;;;;;6.13;1.08;;;;;;;7.16;100.00;100425.97;4976709;28;20096;-73
2022/11/02 04:59:50;;;;;;;2.28;0.80;;;;;;;7.03;100.00;100423.53;4983614;28;20035;-72
2022/11/02 05:02:15;;;;;;;3.97;0.40;;;;;;;6.91;100.00;100420.03;4979810;28;20115;-72
2022/11/02 05:04:44;;;;;;;1.38;0.32;;;;;;;6.73;100.00;100415.59;4985378;28;20054;-72
2022/11/02 05:07:10;;;;;;;0.95;0.40;;;;;;;6.64;100.00;100412.41;4960520;28;20026;-72
2022/11/02 05:09:36;;;;;;;0.40;0.30;;;;;;;6.45;100.00;100414.47;4984851;28;20027;-73
2022/11/02 05:12:03;;;;;;;0.32;0.30;;;;;;;6.36;100.00;100421.34;4953166;28;20058;-73
2022/11/02 05:14:30;;;;;;;0.55;0.35;;;;;;;6.20;100.00;100412.03;4964548;28;20043;-73
2022/11/02 05:16:58;;;;;;;0.85;0.40;;;;;;;6.17;100.00;100407.91;4964404;29;20038;-74
2022/11/02 05:19:24;;;;;;;0.20;0.20;;;;;;;6.18;100.00;100419.59;4988579;28;20035;-73
2022/11/02 05:21:49;;;;;;;1.30;0.40;;;;;;;6.14;100.00;100419.22;4981090;28;20619;-72
2022/11/02 05:24:15;;;;;;;1.55;0.40;;;;;;;6.07;100.00;100423.94;4969038;28;20486;-73
2022/11/02 05:26:41;;;;;;;0.93;0.35;;;;;;;5.97;100.00;100418.25;4968216;28;20037;-72
2022/11/02 05:29:06;;;;;;;0.65;0.30;;;;;;;5.90;100.00;100418.38;4970701;28;20505;-72
2022/11/02 05:31:32;;;;;;;1.13;0.30;;;;;;;5.84;100.00;100417.44;4983622;28;20473;-72
2022/11/02 05:33:58;;;;;;;0.52;0.22;;;;;;;5.76;100.00;100413.16;4951967;28;20142;-72
2022/11/02 05:36:23;;;;;;;0.80;0.20;;;;;;;5.70;100.00;100408.69;4950693;28;20504;-71
2022/11/02 05:38:53;;;;;;;1.20;0.45;;;;;;;5.71;100.00;100415.75;4966854;28;20384;-72
2022/11/02 05:41:19;;;;;;;1.30;0.45;;;;;;;5.63;100.00;100407.97;4981023;28;20031;-72
2022/11/02 05:43:45;;;;;;;0.20;0.20;;;;;;;5.59;100.00;100406.75;4985160;28;20037;-74
2022/11/02 05:46:13;;;;;;;0.30;0.30;;;;;;;5.55;100.00;100405.59;4937667;28;20034;-73
2022/11/02 05:48:39;;;;;;;0.75;0.60;;;;;;;5.60;100.00;100406.53;4968076;28;20042;-73
2022/11/02 05:51:05;;;;;;;1.05;0.65;;;;;;;5.63;100.00;100413.38;4986598;28;20050;-73
2022/11/02 05:53:32;;;;;;;1.90;0.70;;;;;;;5.73;100.00;100412.81;4957430;28;20154;-72
2022/11/02 05:56:00;;;;;;;11.05;1.65;;;;;;;5.77;100.00;100419.44;4966665;28;20034;-75
2022/11/02 05:58:26;;;;;;;9.98;1.50;;;;;;;5.83;100.00;100410.34;4937217;29;20031;-73
2022/11/02 06:00:52;;;;;;;7.72;1.33;;;;;;;5.88;100.00;100401.50;4978452;28;20094;-72
2022/11/02 06:03:18;;;;;;;6.07;1.25;;;;;;;5.93;100.00;100405.16;4970227;28;20030;-72
2022/11/02 06:05:43;;;;;;;10.73;1.63;;;;;;;5.97;100.00;100405.53;4955433;28;20014;-74
2022/11/02 06:08:09;;;;;;;7.80;1.00;;;;;;;5.99;100.00;100406.13;4949146;28;20042;-72
2022/11/02 06:10:34;;;;;;;6.68;1.48;;;;;;;5.96;100.00;100406.59;4943412;28;20054;-73
2022/11/02 06:13:01;;;;;;;11.75;1.85;;;;;;;5.94;100.00;100400.53;4981751;28;20078;-72
2022/11/02 06:15:30;;;;;;;14.40;1.40;;;;;;;5.94;100.00;100398.69;4992202;28;20053;-73
2022/11/02 06:17:55;;;;;;;3.25;0.90;;;;;;;5.91;100.00;100406.44;4983328;28;20040;-71
2022/11/02 06:20:22;;;;;;;6.53;1.10;;;;;;;5.91;100.00;100404.59;4963765;28;20062;-72
2022/11/02 06:22:47;;;;;;;5.03;0.90;;;;;;;5.89;100.00;100392.31;4966289;28;20066;-71
2022/11/02 06:25:13;;;;;;;5.47;1.02;;;;;;;5.90;100.00;100393.97;4962339;28;20031;-72
2022/11/02 06:27:53;;;;;;;4.82;1.08;;;;;;;5.95;100.00;100396.78;4968149;28;20062;-73
2022/11/02 06:30:19;;;;;;;4.22;1.13;;;;;;;5.93;100.00;100393.50;4963481;28;20129;-74
2022/11/02 06:32:47;;;;;;;1.90;0.77;;;;;;;5.87;100.00;100386.25;4948412;28;20054;-72
2022/11/02 06:35:13;;;;;;;2.72;0.80;;;;;;;5.84;100.00;100394.88;4961392;29;20023;-72
2022/11/02 06:37:38;;;;;;;3.25;1.00;;;;;;;5.75;100.00;100378.97;4976686;28;20166;-71
2022/11/02 06:40:07;;;;;;;2.38;0.52;;;;;;;5.75;100.00;100378.13;4966055;28;20066;-71
2022/11/02 06:42:32;;;;;;;1.33;0.35;;;;;;;5.77;100.00;100392.28;4967581;28;20041;-72
2022/11/02 06:45:01;;;;;;;2.13;0.50;;;;;;;5.75;100.00;100395.25;4968849;28;20038;-72
2022/11/02 06:47:35;;;;;;;6.30;1.10;;;;;;;5.81;100.00;100392.63;4955901;28;20039;-73
2022/11/02 06:50:01;;;;;;;1.58;0.80;;;;;;;5.84;100.00;100384.03;4976721;28;20030;-72
2022/11/02 06:52:27;;;;;;;2.05;0.80;;;;;;;5.80;100.00;100386.41;4985799;28;20054;-73
2022/11/02 06:54:54;;;;;;;8.57;1.85;;;;;;;5.81;100.00;100374.50;4967922;28;20034;-73
2022/11/02 06:57:20;;;;;;;10.07;2.35;;;;;;;5.89;100.00;100381.44;4970317;28;20026;-74
2022/11/02 06:59:45;;;;;;;7.10;1.48;;;;;;;5.97;100.00;100389.25;4982750;28;20478;-71
2022/11/02 07:02:11;;;;;;;11.68;1.35;;;;;;;6.09;100.00;100379.22;4953385;28;20031;-72
2022/11/02 07:04:37;;;;;;;10.70;1.40;;;;;;;6.28;100.00;100395.38;4969133;28;20631;-72
2022/11/02 07:07:02;;;;;;;8.48;1.80;;;;;;;6.50;100.00;100397.44;4964611;28;20481;-72
2022/11/02 07:09:27;;;;;;;9.88;1.80;;;;;;;6.71;100.00;100391.38;4937126;28;20046;-72
2022/11/02 07:11:53;;;;;;;16.80;2.13;;;;;;;6.93;100.00;100399.69;4975418;28;20062;-72
2022/11/02 07:14:18;;;;;;;9.60;1.23;;;;;;;7.10;100.00;100404.38;4976131;28;20035;-71
2022/11/02 07:16:44;;;;;;;14.68;2.72;;;;;;;7.20;100.00;100403.72;4969070;28;20033;-72
2022/11/02 07:19:09;;;;;;;6.53;1.25;;;;;;;7.20;100.00;100392.81;4983246;28;20035;-72
2022/11/02 07:21:35;;;;;;;12.50;1.88;;;;;;;7.20;100.00;100401.84;4931238;28;20102;-70
2022/11/02 07:24:00;;;;;;;11.27;1.55;;;;;;;7.24;100.00;100405.72;4959528;28;20074;-70
2022/11/02 07:26:26;;;;;;;9.27;2.15;;;;;;;7.32;100.00;100418.09;4973118;28;20058;-70
2022/11/02 07:28:51;;;;;;;25.63;2.45;;;;;;;7.46;100.00;100416.72;4954605;28;20026;-71
2022/11/02 07:31:27;;;;;;;9.15;1.45;;;;;;;7.62;100.00;100416.97;4945259;28;20159;-78
2022/11/02 07:33:52;;;;;;;21.55;2.78;;;;;;;7.75;100.00;100416.63;4966009;28;20042;-72
2022/11/02 07:36:18;;;;;;;17.38;2.10;;;;;;;7.80;100.00;100414.00;4982667;28;20126;-71
2022/11/02 07:38:43;;;;;;;13.73;1.80;;;;;;;7.79;100.00;100406.09;4947585;28;20038;-72
2022/11/02 07:41:09;;;;;;;7.95;1.25;;;;;;;7.91;100.00;100414.16;4957770;28;20031;-72
2022/11/02 07:43:34;;;;;;;7.03;1.67;;;;;;;8.02;100.00;100410.53;4956605;28;20116;-73
2022/11/02 07:46:05;;;;;;;10.18;1.73;;;;;;;8.25;100.00;100408.66;4937894;28;20062;-72
2022/11/02 07:48:31;;;;;;;12.63;1.58;;;;;;;8.47;100.00;100406.00;4963549;28;20041;-72
2022/11/02 07:50:58;;;;;;;5.18;1.17;;;;;;;8.69;100.00;100403.31;4959663;28;20434;-72
2022/11/02 07:53:26;;;;;;;14.63;2.05;;;;;;;8.75;100.00;100418.63;4975267;28;20031;-72
2022/11/02 07:56:10;;;;;;;9.13;1.65;;;;;;;8.68;100.00;100412.53;4953565;29;20031;-78
2022/11/02 07:58:36;;;;;;;15.70;2.00;;;;;;;8.74;100.00;100411.53;4952801;28;20047;-78
2022/11/02 08:01:04;;;;;;;15.35;2.53;;;;;;;8.98;100.00;100424.88;4966459;28;20133;-76
2022/11/02 08:03:29;;;;;;;8.45;1.92;;;;;;;9.02;100.00;100420.56;4963799;28;20095;-73
2022/11/02 08:05:55;;;;;;;17.85;2.33;;;;;;;8.95;100.00;100417.22;4966406;28;20031;-74
2022/11/02 08:08:25;;;;;;;7.45;1.40;;;;;;;8.80;100.00;100426.06;4983317;28;20034;-73
2022/11/02 08:10:53;;;;;;;14.32;1.38;;;;;;;8.60;100.00;100410.25;4958033;28;20114;-72
2022/11/02 08:13:22;;;;;;;8.18;1.42;;;;;;;8.53;100.00;100415.91;4954953;28;20041;-73
2022/11/02 08:15:57;;;;;;;8.90;1.95;;;;;;;8.43;100.00;100415.75;4946593;28;20029;-75
2022/11/02 08:18:31;;;;;;;6.40;1.92;;;;;;;8.47;100.00;100428.63;4971670;28;20089;-73
2022/11/02 08:20:58;;;;;;;12.45;2.00;;;;;;;8.51;100.00;100428.94;4962757;28;20041;-74
2022/11/02 08:23:27;;;;;;;20.05;2.10;;;;;;;8.53;100.00;100416.72;4966851;28;20027;-75
2022/11/02 08:26:00;;;;;;;12.00;2.17;;;;;;;8.73;100.00;100407.13;4964552;28;20035;-75
2022/11/02 08:28:38;;;;;;;13.50;2.00;;;;;;;9.40;100.00;100418.78;4967287;28;20070;-74
2022/11/02 08:31:06;;;;;;;14.18;2.30;;;;;;;11.64;100.00;100402.97;4966390;28;20023;-74
2022/11/02 08:33:32;;;;;;;14.05;1.70;;;;;;;13.52;100.00;100413.88;4949693;28;20034;-74
2022/11/02 08:36:03;;;;;;;11.65;1.58;;;;;;;14.67;87.44;100413.34;4982670;28;20021;-74
2022/11/02 08:38:31;;;;;;;14.98;2.72;;;;;;;14.75;85.08;100418.22;4945474;28;20031;-75
2022/11/02 08:41:14;;;;;;;13.20;2.10;;;;;;;15.17;81.23;100418.47;4958000;28;20034;-74
2022/11/02 08:44:03;;;;;;;20.35;2.45;;;;;;;15.41;80.22;100401.88;4995519;28;20030;-73
2022/11/02 08:46:31;;;;;;;13.85;1.60;;;;;;;15.50;81.87;100407.53;4966832;28;20050;-74
2022/11/02 08:48:56;;;;;;;12.93;2.08;;;;;;;15.88;80.70;100411.06;4973106;28;20022;-74
2022/11/02 08:51:25;;;;;;;16.13;2.75;;;;;;;16.56;76.67;100407.91;4979217;28;20050;-74
2022/11/02 08:53:53;;;;;;;15.90;2.08;;;;;;;16.97;75.96;100414.53;4983009;28;20022;-74
2022/11/02 08:56:28;;;;;;;;;;;;;;;;;;;;;
2022/11/02 08:59:13;;;;;;;15.57;2.10;;;;;;;17.71;76.92;100416.16;4994277;28;20085;-74
2022/11/02 09:01:39;;;;;;;9.35;1.73;;;;;;;17.75;74.32;100417.16;5000712;28;20030;-74
2022/11/02 09:04:12;;;;;;;23.05;2.83;;;;;;;17.32;78.54;100412.94;4965560;28;20106;-73
2022/11/02 09:06:53;;;;;;;;;;;;;;;;;;;;;
2022/11/02 09:09:19;;;;;;;10.55;1.73;;;;;;;17.43;76.53;100396.91;4998498;28;20097;-74
2022/11/02 09:11:44;;;;;;;11.80;1.92;;;;;;;17.49;77.96;100401.19;5001686;28;20183;-73
2022/11/02 09:14:10;;;;;;;17.50;2.53;;;;;;;17.43;75.89;100396.91;4982350;28;20011;-74
2022/11/02 09:16:38;;;;;;;10.38;1.63;;;;;;;17.47;76.21;100397.13;4974106;28;20460;-74
2022/11/02 09:19:03;;;;;;;17.95;2.63;;;;;;;16.29;74.57;100416.97;4943798;28;20031;-74
2022/11/02 09:21:28;;;;;;;16.10;2.83;;;;;;;14.90;79.14;100386.09;4964858;28;20038;-75
2022/11/02 09:23:56;;;;;;;18.85;1.70;;;;;;;13.82;81.78;100401.00;4962553;28;20041;-74
2022/11/02 09:26:22;;;;;;;13.10;1.98;;;;;;;12.96;85.70;100413.09;4983182;28;20114;-74
2022/11/02 09:28:47;;;;;;;19.02;2.60;;;;;;;12.71;91.68;100409.34;4970894;28;20058;-75
2022/11/02 09:31:15;;;;;;;9.77;1.17;;;;;;;13.40;92.59;100390.34;4973537;28;20126;-77
2022/11/02 09:33:44;;;;;;;14.68;2.38;;;;;;;14.49;88.83;100410.22;4960062;28;20026;-75
2022/11/02 09:36:11;;;;;;;13.32;2.28;;;;;;;14.39;85.71;100376.50;4965896;28;20489;-76
2022/11/02 09:38:39;;;;;;;13.32;2.10;;;;;;;13.50;89.06;100389.44;4966994;28;20123;-74
2022/11/02 09:41:24;;;;;;;25.10;3.58;;;;;;;12.73;90.14;100376.97;4968220;28;20121;-73
2022/11/02 09:44:10;;;;;;;11.65;1.88;;;;;;;12.68;92.18;100377.00;4980412;28;20041;-74
2022/11/02 09:46:45;;;;;;;17.60;1.77;;;;;;;14.54;96.17;100378.25;4981931;28;20026;-73
2022/11/02 09:49:17;;;;;;;7.10;1.77;;;;;;;17.32;87.05;100362.34;4976653;28;20033;-73
2022/11/02 09:51:54;;;;;;;9.45;1.65;;;;;;;20.33;75.08;100346.47;4980355;28;20023;-74
2022/11/02 09:54:29;;;;;;;16.60;2.13;;;;;;;22.21;72.70;100360.66;4979732;28;20030;-75
2022/11/02 09:57:02;;;;;;;14.93;3.05;;;;;;;21.56;70.82;100350.03;4975116;28;20026;-74
2022/11/02 09:59:28;;;;;;;12.18;2.30;;;;;;;22.52;68.45;100358.50;4992669;28;20033;-73
2022/11/02 10:01:58;;;;;;;14.48;2.20;;;;;;;23.81;63.03;100351.13;4977107;28;20116;-73
2022/11/02 10:04:32;;;;;;;14.02;2.20;;;;;;;24.40;65.63;100334.69;4993949;28;20031;-72
2022/11/02 10:07:04;;;;;;;13.05;3.35;;;;;;;23.11;60.18;100330.03;4997515;28;20038;-73
2022/11/02 10:09:40;;;;;;;15.35;2.50;;;;;;;20.52;65.40;100326.63;4980084;28;20034;-73
2022/11/02 10:12:18;;;;;;;18.23;2.78;;;;;;;19.44;66.06;100322.06;4980815;28;20033;-73
2022/11/02 10:15:12;;;;;;;21.15;2.33;;;;;;;17.12;70.85;100314.75;4977025;28;20090;-75
2022/11/02 10:17:41;;;;;;;16.75;2.38;;;;;;;16.40;75.48;100321.84;4958452;28;20031;-74
2022/11/02 10:20:26;;;;;;;14.73;2.15;;;;;;;16.00;73.59;100318.75;4976477;28;20026;-73
2022/11/02 10:23:02;;;;;;;22.75;2.72;;;;;;;15.55;74.06;100299.97;4981766;28;20065;-74
2022/11/02 10:25:27;;;;;;;31.60;4.15;;;;;;;15.13;76.38;100288.00;4981007;28;20397;-73
2022/11/02 10:28:03;;;;;;;19.20;2.30;;;;;;;14.93;77.76;100311.16;5001510;28;20022;-74
2022/11/02 10:30:29;;;;;;;23.25;2.75;;;;;;;14.97;79.45;100279.97;4979006;28;20030;-73
2022/11/02 10:32:55;;;;;;;14.95;3.15;;;;;;;14.92;77.51;100284.72;4982496;28;20082;-74
2022/11/02 10:35:33;;;;;;;21.80;2.70;;;;;;;15.04;78.00;100298.03;4983054;28;20029;-73
2022/11/02 10:38:41;;;;;;;13.60;2.53;;;;;;;15.23;77.37;100292.50;4981568;28;20026;-74
2022/11/02 10:41:27;;;;;;;19.25;2.88;;;;;;;15.58;74.76;100290.25;4961709;28;20037;-74
2022/11/02 10:44:13;;;;;;;15.95;2.33;;;;;;;15.82;73.04;100290.94;4977313;28;20038;-74
2022/11/02 10:47:00;;;;;;;24.48;2.88;;;;;;;16.29;74.24;100290.06;4996725;28;20558;-73
2022/11/02 10:49:46;;;;;;;27.55;3.88;;;;;;;17.20;70.30;100272.56;4991280;28;20034;-73
2022/11/02 10:52:15;;;;;;;26.25;3.00;;;;;;;17.87;68.11;100284.66;4975350;28;20028;-73
2022/11/02 10:54:40;;;;;;;19.23;3.58;;;;;;;17.95;71.49;100250.69;4993093;28;20049;-74
2022/11/02 10:57:24;;;;;;;21.27;3.47;;;;;;;18.01;70.24;100267.97;4984149;28;20030;-73
2022/11/02 11:00:21;;;;;;;22.95;2.90;;;;;;;17.50;65.73;100322.66;4969302;28;20811;-74
2022/11/02 11:03:06;;;;;;;18.60;2.83;;;;;;;17.52;62.87;100301.06;4974414;28;20023;-73
2022/11/02 11:05:36;;;;;;;24.00;2.75;;;;;;;17.04;67.46;100250.00;4997123;28;20026;-74
2022/11/02 11:08:03;;;;;;;25.58;2.88;;;;;;;16.73;65.70;100277.50;4965519;28;20026;-74
2022/11/02 11:10:35;;;;;;;16.08;3.05;;;;;;;16.48;69.03;100235.53;4957899;28;20142;-73
2022/11/02 11:13:02;;;;;;;13.18;2.67;;;;;;;16.35;70.48;100230.88;4976347;28;20113;-74
2022/11/02 11:15:32;;;;;;;25.08;3.25;;;;;;;16.38;70.34;100208.16;4965758;28;20078;-74
2022/11/02 11:17:57;;;;;;;28.13;3.58;;;;;;;16.41;70.69;100202.03;4974135;28;20007;-74
2022/11/02 11:20:34;;;;;;;23.02;2.63;;;;;;;16.27;68.53;100240.69;4974996;28;20050;-74
2022/11/02 11:23:24;;;;;;;11.90;2.00;;;;;;;15.97;70.50;100214.56;4966539;28;20446;-74
2022/11/02 11:25:56;;;;;;;18.73;3.35;;;;;;;15.87;70.57;100208.16;4959890;28;20038;-74
2022/11/02 11:28:29;;;;;;;23.63;3.58;;;;;;;15.68;69.33;100234.94;4974256;28;20474;-74
2022/11/02 11:31:10;;;;;;;21.23;2.95;;;;;;;15.36;70.98;100201.66;4978079;28;20026;-74
2022/11/02 11:33:50;;;;;;;28.30;3.50;;;;;;;15.36;70.93;100182.38;4980197;28;20054;-74
2022/11/02 11:36:32;;;;;;;14.80;2.70;;;;;;;15.51;70.47;100181.25;4982456;28;20129;-74
2022/11/02 11:39:03;;;;;;;18.63;2.80;;;;;;;15.42;70.92;100172.06;4969106;28;20035;-74
2022/11/02 11:41:31;;;;;;;11.93;2.22;;;;;;;15.25;70.44;100155.31;4960341;28;20038;-74
2022/11/02 11:43:57;;;;;;;22.55;2.95;;;;;;;15.02;71.95;100155.16;4978745;28;20055;-74
2022/11/02 11:46:38;;;;;;;22.42;2.90;;;;;;;14.93;70.00;100144.03;4981141;28;20042;-75
2022/11/02 11:49:04;;;;;;;17.08;2.63;;;;;;;14.95;71.30;100151.97;4976638;28;20037;-74
2022/11/02 11:51:41;;;;;;;19.50;2.92;;;;;;;15.06;69.22;100150.69;4973937;28;20027;-74
2022/11/02 11:54:26;;;;;;;22.58;3.20;;;;;;;15.04;71.49;100144.69;4973514;28;20026;-75
2022/11/02 11:57:34;;;;;;;10.50;2.90;;;;;;;15.29;68.23;100137.88;4973973;28;20066;-74